Data for 11/03/2006

Time Sea-Level Adjusted Pressure Absolute Pressure Temperature Relative Humidity Dew Point   
(mb) (inHg) (mb) (inHg) (C) (F) (%) (C) (F)
00:05 1015 29.97 844 24.92 5.2 41.4 54 -3.3 26.1
00:10 1015 29.97 844 24.92 5.4 41.8 54 -3.1 26.3
00:15 1015 29.97 844 24.92 5.4 41.7 55 -3 26.6
00:20 1015 29.97 844 24.92 5.3 41.5 56 -2.8 27
00:25 1015 29.97 844 24.92 5 40.9 56 -3 26.5
00:30 1015 29.97 844 24.92 5.2 41.3 56 -3 26.6
00:35 1015 29.97 844 24.92 5.1 41.2 58 -2.5 27.5
00:40 1015 29.97 844 24.92 4.8 40.7 58 -2.7 27.1
00:45 1015 29.97 844 24.92 4.9 40.9 58 -2.7 27.2
00:50 1015 29.97 844 24.92 4.9 40.9 57 -2.8 26.9
00:55 1015 29.97 844 24.92 5 41 57 -2.8 27
01:00 1015 29.97 844 24.92 5.1 41.2 56 -2.9 26.8
01:05 1015 29.97 844 24.92 5.3 41.6 56 -2.7 27.1
01:10 1015 29.97 844 24.92 5.5 41.9 56 -2.6 27.4
01:15 1015 29.97 844 24.92 5.4 41.6 56 -2.6 27.2
01:20 1015 29.97 844 24.92 5.2 41.3 56 -3 26.6
01:25 1015 29.97 844 24.92 5.2 41.3 57 -2.6 27.3
01:30 1015 29.97 844 24.92 5 40.9 58 -2.7 27.1
01:35 1015 29.97 844 24.92 5.1 41.1 55 -3.2 26.3
01:40 1015 29.97 844 24.92 5 41 59 -2.4 27.6
01:45 1015 29.97 844 24.92 5.2 41.4 57 -2.7 27.2
01:50 1015 29.97 844 24.92 5.4 41.8 58 -2.2 28
01:55 1015 29.97 844 24.92 5.2 41.4 59 -2.1 28.1
02:00 1015 29.97 844 24.92 5.4 41.8 55 -2.9 26.8
02:05 1015 29.97 844 24.92 5.8 42.5 55 -2.5 27.5
02:10 1015 29.97 844 24.92 5.8 42.4 56 -2.2 28
02:15 1015 29.97 844 24.92 5.9 42.6 55 -2.5 27.4
02:20 1015 29.97 844 24.92 6.1 43 54 -2.6 27.3
02:25 1015 29.97 844 24.92 6.1 43 57 -1.8 28.8
02:30 1015 29.97 844 24.92 6.1 42.9 55 -2.3 27.8
02:35 1015 29.97 844 24.92 6 42.8 54 -2.5 27.4
02:40 1015 29.97 844 24.92 6 42.7 55 -2.5 27.6
02:45 1015 29.97 844 24.92 5.7 42.2 63 -0.9 30.4
02:50 1015 29.97 844 24.92 4.8 40.6 62 -1.9 28.6
02:55 1015 29.97 844 24.92 5.1 41.1 56 -3 26.6
03:00 1015 29.97 844 24.92 5.6 42.1 58 -1.9 28.5
03:05 1015 29.97 844 24.92 5.6 42.1 57 -2.2 28
03:10 1015 29.97 844 24.92 5.5 41.9 59 -1.9 28.5
03:15 1015 29.97 844 24.92 5.5 41.8 58 -2.1 28.1
03:20 1015 29.97 844 24.92 5.4 41.6 57 -2.4 27.7
03:25 1015 29.97 844 24.92 5.4 41.6 58 -2.3 27.8
03:30 1015 29.97 844 24.92 5.3 41.6 60 -1.9 28.6
03:35 1015 29.97 844 24.92 5.1 41.2 60 -1.9 28.5
03:40 1015 29.97 844 24.92 5 41 61 -2 28.4
03:45 1015 29.97 844 24.92 4.6 40.3 61 -2.3 27.9
03:50 1015 29.97 844 24.92 4.6 40.2 61 -2.3 27.9
03:55 1015 29.97 844 24.92 4.3 39.8 60 -2.6 27.2
04:00 1015 29.97 844 24.92 4.6 40.2 61 -2.4 27.6
04:05 1015 29.97 844 24.92 4.6 40.3 61 -2.2 28
04:10 1015 29.97 844 24.92 4.6 40.2 62 -2.2 28.1
04:15 1015 29.97 844 24.92 4.7 40.4 61 -2.1 28.3
04:20 1015 29.97 844 24.92 4.7 40.4 62 -2.1 28.3
04:25 1015 29.97 844 24.92 4.7 40.4 62 -1.9 28.5
04:30 1015 29.97 844 24.92 4.7 40.4 64 -1.5 29.2
04:35 1015 29.97 844 24.92 4.4 39.9 67 -1.2 29.8
04:40 1015 29.97 844 24.92 4.3 39.8 68 -1.1 30
04:45 1015 29.97 844 24.92 4.3 39.8 67 -1.3 29.6
04:50 1015 29.97 844 24.92 4.3 39.8 68 -1.1 30
04:55 1015 29.97 844 24.92 3.9 39.1 73 -0.4 31.3
05:00 1015 29.97 844 24.92 3.7 38.6 70 -1.3 29.6
05:05 1015 29.97 844 24.92 4 39.2 68 -1.4 29.5
05:10 1015 29.97 844 24.92 4.4 40 66 -1.3 29.7
05:15 1015 29.97 844 24.92 4.3 39.7 68 -1.2 29.9
05:20 1015 29.97 844 24.92 4.1 39.4 68 -1.3 29.6
05:25 1015 29.97 844 24.92 3.9 39 71 -1 30.3
05:30 1015 29.97 844 24.92 3.6 38.6 70 -1.3 29.6
05:35 1015 29.97 845 24.95 4.1 39.4 67 -1.4 29.6
05:40 1015 29.97 845 24.95 4.6 40.3 65 -1.5 29.3
05:45 1015 29.97 845 24.95 5 40.9 65 -1.1 30.1
05:50 1015 29.97 845 24.95 4.9 40.8 66 -0.8 30.5
05:55 1015 29.97 845 24.95 4.6 40.3 68 -0.8 30.5
06:00 1015 29.97 845 24.95 4.6 40.3 68 -0.7 30.7
06:05 1016 30 845 24.95 4.2 39.6 71 -0.7 30.8
06:10 1016 30 845 24.95 4 39.1 71 -0.8 30.6
06:15 1016 30 845 24.95 4.3 39.8 69 -0.8 30.5
06:20 1015 29.97 845 24.95 4.8 40.6 66 -1 30.3
06:25 1015 29.97 845 24.95 5.2 41.3 65 -0.8 30.6
06:30 1015 29.97 845 24.95 5.2 41.3 65 -0.7 30.7
06:35 1015 29.97 845 24.95 5.3 41.5 66 -0.6 31
06:40 1015 29.97 845 24.95 5.2 41.4 65 -0.7 30.7
06:45 1015 29.97 845 24.95 5.3 41.6 65 -0.7 30.7
06:50 1016 30 845 24.95 5.4 41.6 65 -0.7 30.7
06:55 1016 30 845 24.95 5.3 41.5 64 -1 30.2
07:00 1016 30 845 24.95 5.3 41.5 64 -0.9 30.3
07:05 1016 30 845 24.95 5.3 41.5 64 -0.9 30.3
07:10 1016 30 845 24.95 4.8 40.7 70 -0.1 31.8
07:15 1016 30 845 24.95 3.6 38.4 76 -0.2 31.6
07:20 1016 30 845 24.95 3.4 38.1 75 -0.6 31
07:25 1016 30 845 24.95 3.7 38.7 74 -0.6 31
07:30 1016 30 845 24.95 4.1 39.4 72 -0.5 31.1
07:35 1016 30 845 24.95 4.2 39.5 73 -0.3 31.5
07:40 1016 30 845 24.95 4 39.2 73 -0.5 31.1
07:45 1016 30 845 24.95 4.2 39.6 72 -0.3 31.5
07:50 1016 30 845 24.95 3.9 39 76 -0.1 31.9
07:55 1016 30 845 24.95 3.4 38.2 76 -0.3 31.4
08:00 1016 30 845 24.95 3.5 38.2 76 -0.4 31.2
08:05 1016 30 845 24.95 3.8 38.9 73 -0.6 30.9
08:10 1016 30 846 24.98 4.2 39.5 70 -0.7 30.7
08:15 1016 30 846 24.98 4.7 40.4 67 -0.9 30.4
08:20 1016 30 846 24.98 4.8 40.7 67 -0.8 30.6
08:25 1016 30 846 24.98 5.1 41.2 68 -0.4 31.3
08:30 1016 30 846 24.98 5.2 41.4 68 -0.2 31.6
08:35 1016 30 846 24.98 5 41.1 68 -0.4 31.3
08:40 1016 30 846 24.98 5.4 41.8 66 -0.4 31.3
08:45 1016 30 846 24.98 6 42.7 64 -0.2 31.6
08:50 1016 30 846 24.98 6.3 43.4 64 -0 31.9
08:55 1016 30 846 24.98 6.4 43.5 64 0 32
09:00 1016 30 845 24.95 6.4 43.5 64 0 32
09:05 1016 30 845 24.95 6.4 43.6 63 0 32
09:10 1016 30 845 24.95 6.8 44.2 63 0.2 32.3
09:15 1016 30 845 24.95 6.8 44.3 62 0.2 32.3
09:20 1016 30 845 24.95 6.5 43.8 63 0 32.1
09:25 1016 30 845 24.95 6.7 44 62 -0.1 31.8
09:30 1016 30 845 24.95 7 44.6 60 -0.2 31.7
09:35 1016 30 845 24.95 7.5 45.4 60 0.2 32.4
09:40 1016 30 845 24.95 7.5 45.6 60 0.2 32.4
09:45 1016 30 845 24.95 7.5 45.5 60 0.3 32.5
09:50 1016 30 845 24.95 8.3 46.9 57 0.2 32.4
09:55 1016 30 845 24.95 9.4 48.9 51 -0.2 31.6
10:00 1016 30 845 24.95 9.5 49.1 52 0.2 32.4
10:05 1016 30 845 24.95 9.3 48.7 54 0.3 32.6
10:10 1016 30 845 24.95 8.9 48.1 54 0.1 32.2
10:15 1016 30 845 24.95 9.1 48.3 53 0 32.1
10:20 1016 30 845 24.95 8.7 47.7 55 0.2 32.3
10:25 1016 30 845 24.95 8.8 47.9 54 0.1 32.1
10:30 1016 30 846 24.98 9.2 48.5 52 -0.1 31.9
10:35 1016 30 846 24.98 9.5 49.1 52 0.1 32.1
10:40 1016 30 846 24.98 9.6 49.2 52 0.2 32.4
10:45 1016 30 846 24.98 9.6 49.3 51 0.1 32.2
10:50 1016 30 846 24.98 9.7 49.5 51 0.2 32.3
10:55 1016 30 845 24.95 9.6 49.3 52 0.4 32.7
11:00 1016 30 846 24.98 9.7 49.5 50 -0.2 31.7
11:05 1016 30 846 24.98 11.6 52.8 44 -0.2 31.6
11:10 1016 30 845 24.95 12.8 55 42 0.3 32.5
11:15 1016 30 845 24.95 13.1 55.6 41 0.3 32.5
11:20 1016 30 845 24.95 12.4 54.3 43 0.4 32.6
11:25 1016 30 845 24.95 11.9 53.4 44 0 32
11:30 1016 30 845 24.95 12.7 54.8 42 0.2 32.3
11:35 1016 30 845 24.95 13.2 55.8 41 0.5 32.9
11:40 1016 30 845 24.95 13.1 55.6 42 0.5 32.9
11:45 1016 30 846 24.98 12.9 55.3 43 0.9 33.6
11:50 1016 30 845 24.95 12.2 53.9 45 0.6 33.2
11:55 1016 30 845 24.95 11.4 52.5 46 0.4 32.7
12:00 1016 30 845 24.95 11 51.8 42 -1.3 29.7
12:05 1016 30 845 24.95 11.2 52.2 42 -1.3 29.7
12:10 1016 30 845 24.95 11.2 52.2 43 -1 30.2
12:15 1016 30 845 24.95 11.3 52.3 41 -1.3 29.7
12:20 1016 30 845 24.95 11.4 52.5 43 -0.8 30.6
12:25 1016 30 845 24.95 11.4 52.4 43 -0.7 30.7
12:30 1016 30 845 24.95 11.2 52.2 44 -0.6 31
12:35 1016 30 845 24.95 10.9 51.6 45 -0.6 30.9
12:40 1016 30 845 24.95 10.8 51.5 45 -0.7 30.8
12:45 1016 30 845 24.95 10.9 51.6 45 -0.5 31.1
12:50 1016 30 845 24.95 10.9 51.6 45 -0.4 31.2
12:55 1016 30 845 24.95 10.9 51.7 46 -0.2 31.7
13:00 1016 30 845 24.95 10.9 51.6 47 0 32.1
13:05 1016 30 845 24.95 11.1 52 46 -0.2 31.7
13:10 1016 30 845 24.95 11.1 52 46 0 32
13:15 1016 30 845 24.95 11.1 52 46 -0.2 31.7
13:20 1016 30 845 24.95 11.2 52.1 45 -0.2 31.6
13:25 1016 30 845 24.95 11.2 52.1 46 -0.1 31.8
13:30 1016 30 845 24.95 11.1 52 46 -0 32
13:35 1016 30 845 24.95 11.1 51.9 44 -0.6 30.9
13:40 1016 30 845 24.95 11.2 52.2 44 -0.6 30.9
13:45 1016 30 845 24.95 11.4 52.4 43 -0.8 30.6
13:50 1016 30 845 24.95 11.5 52.6 43 -0.5 31
13:55 1016 30 845 24.95 11.6 53 43 -0.4 31.3
14:00 1016 30 845 24.95 11.9 53.5 43 -0.2 31.6
14:05 1016 30 845 24.95 12 53.6 44 0.2 32.3
14:10 1016 30 845 24.95 12 53.6 44 0.1 32.2
14:15 1016 30 845 24.95 11.9 53.4 44 0 32.1
14:20 1016 30 845 24.95 11.8 53.3 43 -0.3 31.5
14:25 1016 30 845 24.95 11.8 53.2 44 0 32
14:30 1016 30 845 24.95 11.8 53.2 44 -0 32
14:35 1016 30 845 24.95 12.5 54.5 42 0 32
14:40 1016 30 845 24.95 13.3 56 38 -0.5 31.1
14:45 1016 30 845 24.95 13.6 56.5 39 -0 32
14:50 1016 30 845 24.95 13.3 55.9 41 0.3 32.5
14:55 1016 30 845 24.95 13 55.4 40 -0.1 31.9
15:00 1016 30 845 24.95 12.7 54.9 40 -0.4 31.3
15:05 1016 30 845 24.95 12.6 54.6 42 -0 32
15:10 1016 30 845 24.95 12.5 54.4 41 -0.3 31.4
15:15 1016 30 845 24.95 12.2 54 41 -0.6 30.9
15:20 1016 30 845 24.95 12 53.6 43 -0.1 31.8
15:25 1016 30 845 24.95 11.8 53.2 43 -0.3 31.4
15:30 1016 30 845 24.95 11.6 52.8 44 -0.1 31.7
15:35 1016 30 845 24.95 11.4 52.6 42 -0.8 30.5
15:40 1016 30 845 24.95 11.5 52.8 42 -1 30.1
15:45 1016 30 845 24.95 11.6 52.9 44 -0.2 31.6
15:50 1016 30 845 24.95 11.5 52.6 43 -0.7 30.7
15:55 1016 30 845 24.95 11.5 52.8 43 -0.5 31
16:00 1016 30 845 24.95 11.6 52.8 43 -0.4 31.3
16:05 1016 30 845 24.95 11.7 53 44 -0.2 31.7
16:10 1016 30 845 24.95 11.9 53.5 41 -0.7 30.7
16:15 1016 30 845 24.95 12.5 54.4 39 -1 30.2
16:20 1016 30 845 24.95 12.7 54.8 37 -1.5 29.4
16:25 1016 30 845 24.95 12.5 54.6 40 -0.8 30.6
16:30 1016 30 845 24.95 12.1 53.8 41 -0.7 30.8
16:35 1016 30 845 24.95 11.9 53.4 42 -0.4 31.3
16:40 1016 30 845 24.95 11.8 53.2 42 -0.6 30.9
16:45 1016 30 845 24.95 11.7 53.1 41 -1 30.1
16:50 1016 30 845 24.95 11.6 52.8 42 -1 30.2
16:55 1016 30 845 24.95 11.4 52.5 42 -0.9 30.5
17:00 1016 30 845 24.95 11.3 52.3 42 -1 30.2
17:05 1016 30 845 24.95 11.2 52.2 43 -0.8 30.5
17:10 1016 30 845 24.95 11 51.9 43 -1 30.1
17:15 1016 30 845 24.95 11.1 51.9 43 -0.9 30.4
17:20 1016 30 845 24.95 10.9 51.6 44 -0.7 30.7
17:25 1016 30 845 24.95 10.7 51.3 45 -0.7 30.7
17:30 1016 30 845 24.95 10.5 51 46 -0.5 31.1
17:35 1016 30 846 24.98 10.3 50.5 47 -0.5 31
17:40 1016 30 846 24.98 10.2 50.3 47 -0.4 31.2
17:45 1016 30 846 24.98 10.1 50.1 48 -0.5 31.1
17:50 1016 30 846 24.98 9.7 49.4 50 -0.3 31.5
17:55 1016 30 846 24.98 9.4 49 48 -0.9 30.4
18:00 1016 30 846 24.98 9.4 48.9 48 -1 30.1
18:05 1016 30 846 24.98 9.5 49.1 47 -1.4 29.6
18:10 1016 30 846 24.98 9.6 49.4 46 -1.3 29.7
18:15 1016 30 845 24.95 9.7 49.4 46 -1.3 29.6
18:20 1016 30 845 24.95 9.7 49.4 45 -1.7 28.9
18:25 1016 30 845 24.95 9.8 49.6 46 -1.3 29.6
18:30 1016 30 845 24.95 9.5 49.1 50 -0.5 31.2
18:35 1016 30 845 24.95 8.7 47.6 52 -0.7 30.8
18:40 1016 30 845 24.95 8.4 47.1 52 -0.7 30.7
18:45 1016 30 845 24.95 8.6 47.5 49 -1.5 29.2
18:50 1016 30 845 24.95 8.8 47.9 49 -1.2 29.9
18:55 1016 30 845 24.95 8.5 47.2 50 -1.3 29.7
19:00 1016 30 845 24.95 8.4 47.1 49 -1.7 29
19:05 1016 30 845 24.95 8.6 47.4 49 -1.4 29.4
19:10 1016 30 845 24.95 8.4 47.1 50 -1.5 29.3
19:15 1016 30 845 24.95 8.4 47.1 49 -1.7 28.9
19:20 1016 30 845 24.95 8.2 46.8 50 -1.5 29.4
19:25 1016 30 846 24.98 7.8 46 53 -1.3 29.7
19:30 1016 30 846 24.98 7.6 45.6 52 -1.5 29.3
19:35 1016 30 846 24.98 7.9 46.3 51 -1.4 29.4
19:40 1016 30 845 24.95 8 46.3 53 -1 30.2
19:45 1016 30 845 24.95 7.7 45.8 53 -1.3 29.6
19:50 1016 30 846 24.98 7.4 45.4 55 -1.1 30.1
19:55 1016 30 846 24.98 6.9 44.4 55 -1.5 29.3
20:00 1016 30 846 24.98 6.8 44.2 55 -1.7 29
20:05 1016 30 845 24.95 6.8 44.3 56 -1.4 29.5
20:10 1016 30 845 24.95 6.4 43.6 57 -1.5 29.3
20:15 1016 30 845 24.95 6.3 43.3 58 -1.3 29.6
20:20 1016 30 845 24.95 5.8 42.5 60 -1.3 29.7
20:25 1016 30 846 24.98 5.6 42.2 60 -1.6 29.2
20:30 1016 30 846 24.98 5.8 42.4 59 -1.5 29.3
20:35 1016 30 846 24.98 6 42.8 58 -1.7 29
20:40 1016 30 846 24.98 6.7 44 56 -1.4 29.5
20:45 1016 30 846 24.98 6.9 44.3 56 -1.4 29.5
20:50 1016 30 846 24.98 6.9 44.4 55 -1.4 29.5
20:55 1016 30 846 24.98 6.6 44 57 -1.3 29.7
21:00 1016 30 846 24.98 6.3 43.4 58 -1.4 29.5
21:05 1016 30 845 24.95 5.9 42.6 59 -1.4 29.4
21:10 1016 30 845 24.95 5.7 42.2 60 -1.4 29.5
21:15 1016 30 845 24.95 5.7 42.3 60 -1.5 29.3
21:20 1016 30 845 24.95 5.7 42.3 59 -1.6 29.1
21:25 1016 30 845 24.95 5.8 42.4 60 -1.4 29.4
21:30 1016 30 845 24.95 5.8 42.5 59 -1.5 29.2
21:35 1016 30 845 24.95 5.8 42.4 60 -1.4 29.4
21:40 1016 30 845 24.95 5.7 42.3 59 -1.6 29.1
21:45 1016 30 845 24.95 5.8 42.4 59 -1.6 29.2
21:50 1016 30 845 24.95 5.7 42.3 60 -1.5 29.3
21:55 1016 30 846 24.98 5.8 42.5 59 -1.5 29.4
22:00 1016 30 846 24.98 5.8 42.5 60 -1.4 29.5
22:05 1016 30 846 24.98 5.7 42.3 60 -1.3 29.6
22:10 1017 30.03 846 24.98 5.5 41.9 61 -1.5 29.3
22:15 1017 30.03 846 24.98 5.5 41.9 61 -1.5 29.3
22:20 1017 30.03 846 24.98 5.4 41.7 61 -1.5 29.4
22:25 1017 30.03 846 24.98 5.4 41.7 60 -1.6 29.1
22:30 1017 30.03 846 24.98 5.7 42.3 59 -1.7 28.9
22:35 1017 30.03 846 24.98 6 42.8 58 -1.6 29.2
22:40 1017 30.03 846 24.98 5.7 42.2 60 -1.5 29.3
22:45 1017 30.03 846 24.98 5.3 41.6 60 -1.8 28.8
22:50 1017 30.03 846 24.98 5.5 41.9 60 -1.6 29.1
22:55 1017 30.03 846 24.98 5.1 41.1 61 -1.8 28.8
23:00 1017 30.03 846 24.98 5 41 61 -1.8 28.8
23:05 1016 30 846 24.98 5 40.9 62 -1.7 28.9
23:10 1016 30 846 24.98 5.1 41.2 61 -1.9 28.6
23:15 1016 30 846 24.98 5.2 41.4 60 -1.8 28.8
23:20 1016 30 846 24.98 5.3 41.5 61 -1.7 29
23:25 1016 30 846 24.98 5.2 41.4 61 -1.7 28.9
23:30 1016 30 846 24.98 4.9 40.9 62 -1.7 29
23:35 1016 30 845 24.95 4.7 40.4 63 -1.7 28.9
23:40 1016 30 845 24.95 4.4 40 64 -1.9 28.6
23:45 1016 30 845 24.95 4.6 40.4 63 -1.8 28.7
23:50 1016 30 845 24.95 4.6 40.3 63 -1.8 28.8
23:55 1016 30 845 24.95 4.5 40.1 64 -1.7 29
24:00 1016 30 846 24.98 4 39.3 66 -1.7 29